Terminal Aerodrome Forecast
Issued by NWS Springfield, MO

Home | Current Version | Previous Version | Text Only | Print | Product List | Glossary On
Versions: 1 2 3 4 5 6 7 8 9 10 11 12 13 14
288
FTUS43 KSGF 091720
TAFSGF
TAF
KSGF 091720Z 0918/1018 33022G30KT P6SM SCT040
     FM100000 32014KT P6SM FEW250
     FM101400 28006KT P6SM SCT120=

USA.gov is the U.S. government's official web portal to all federal, state and local government web resources and services.